Time;durP1;ratioP1;P1;durP2;ratioP2;P2;SDS_P1;SDS_P2;PMS_P1;PMS_P2;Temp;Humidity;BMP_temperature;BMP_pressure;BME280_temperature;BME280_humidity;BME280_pressure;Samples;Min_cycle;Max_cycle;Signal;HPM_P1;HPM_P2
2021/07/31 02:27:07;;;;;;;0.20;0.20;;;15.10;99.90;;;;;;6203806;23;20384;-96
2021/07/31 02:30:04;;;;;;;;;;;;;;;;;;;;;
2021/07/31 02:39:43;;;;;;;0.20;0.20;;;14.90;99.90;;;;;;6276958;22;20396;-96
2021/07/31 03:42:47;;;;;;;0.80;0.50;;;14.90;99.90;;;;;;6257603;22;20376;-96
2021/07/31 03:49:29;;;;;;;0.20;0.20;;;14.90;99.90;;;;;;6298839;22;20388;-95
2021/07/31 03:52:51;;;;;;;0.10;0.10;;;15.00;99.90;;;;;;6273666;22;20400;-95
2021/07/31 03:55:48;;;;;;;0.20;0.20;;;15.00;99.90;;;;;;6269985;22;20406;-96
2021/07/31 03:58:15;;;;;;;1.27;0.75;;;14.90;99.90;;;;;;6271827;22;20415;-96
2021/07/31 04:00:58;;;;;;;0.10;0.10;;;14.90;99.90;;;;;;6245811;22;20398;-95
2021/07/31 04:03:50;;;;;;;0.30;0.30;;;14.90;99.90;;;;;;6299127;22;20408;-96
2021/07/31 04:07:34;;;;;;;;;;;;;;;;;;;;;
2021/07/31 04:10:27;;;;;;;0.80;0.80;;;14.80;99.90;;;;;;6201752;23;20389;-96
2021/07/31 04:13:22;;;;;;;0.40;0.40;;;14.80;99.90;;;;;;6282780;22;20406;-95
2021/07/31 04:16:28;;;;;;;0.40;0.40;;;14.80;99.90;;;;;;6310224;22;20414;-95
2021/07/31 04:19:11;;;;;;;0.30;0.30;;;14.80;99.90;;;;;;6319211;22;20394;-96
2021/07/31 04:21:43;;;;;;;0.65;0.65;;;14.80;99.90;;;;;;6295150;22;20363;-96
2021/07/31 04:24:29;;;;;;;1.20;0.65;;;14.90;99.90;;;;;;6319039;22;20378;-96
2021/07/31 04:27:07;;;;;;;0.50;0.50;;;14.80;99.90;;;;;;6319360;22;20409;-95
2021/07/31 04:29:37;;;;;;;2.90;0.50;;;14.80;99.90;;;;;;6331803;22;20371;-96
2021/07/31 04:32:05;;;;;;;0.20;0.20;;;14.80;99.90;;;;;;6296136;22;20389;-95
2021/07/31 04:35:11;;;;;;;1.10;0.50;;;14.80;99.90;;;;;;6288790;22;20455;-95
2021/07/31 04:37:44;;;;;;;0.20;0.20;;;14.80;99.90;;;;;;6285912;22;20388;-96
2021/07/31 04:40:18;;;;;;;0.40;0.40;;;14.80;99.90;;;;;;6266270;22;20546;-95
2021/07/31 04:43:08;;;;;;;0.60;0.60;;;14.70;99.90;;;;;;6284529;22;20411;-96
2021/07/31 04:46:10;;;;;;;0.50;0.50;;;14.70;99.90;;;;;;6286367;22;20384;-96
2021/07/31 04:48:53;;;;;;;0.25;0.25;;;14.70;99.90;;;;;;6292370;22;20388;-95
2021/07/31 04:51:20;;;;;;;0.50;0.50;;;14.70;99.90;;;;;;6285730;22;20404;-96
2021/07/31 04:53:53;;;;;;;0.25;0.25;;;14.70;99.90;;;;;;6284918;22;20377;-96
2021/07/31 04:56:21;;;;;;;0.35;0.35;;;14.70;99.90;;;;;;6287738;22;20384;-96
2021/07/31 04:58:53;;;;;;;0.40;0.40;;;14.70;99.90;;;;;;6286838;22;20479;-95
2021/07/31 05:01:22;;;;;;;0.30;0.30;;;14.70;99.90;;;;;;6283863;22;20419;-95
2021/07/31 05:03:51;;;;;;;0.57;0.55;;;14.70;99.90;;;;;;6287877;22;20384;-96
2021/07/31 05:06:22;;;;;;;0.88;0.55;;;14.70;99.90;;;;;;6285674;22;20395;-96
2021/07/31 05:08:50;;;;;;;0.30;0.30;;;14.70;99.90;;;;;;6286097;22;20389;-96
2021/07/31 05:11:21;;;;;;;0.25;0.25;;;14.70;99.90;;;;;;6284931;22;20388;-95
2021/07/31 05:13:49;;;;;;;0.60;0.50;;;14.70;99.90;;;;;;6259814;22;20395;-96
2021/07/31 05:16:26;;;;;;;0.30;0.30;;;14.80;99.90;;;;;;6287687;22;20481;-96
2021/07/31 06:48:27;;;;;;;0.25;0.25;;;15.00;99.90;;;;;;6256894;22;20396;-96
2021/07/31 06:51:22;;;;;;;0.60;0.60;;;15.00;99.90;;;;;;6135586;23;20399;-95
2021/07/31 06:54:16;;;;;;;0.63;0.63;;;15.00;99.90;;;;;;6204554;22;20482;-96
2021/07/31 07:03:16;;;;;;;0.10;0.10;;;15.00;99.90;;;;;;6264261;22;20706;-95
2021/07/31 07:08:19;;;;;;;0.28;0.28;;;15.10;99.90;;;;;;6283655;22;20392;-95
2021/07/31 07:20:05;;;;;;;0.40;0.40;;;15.10;99.90;;;;;;6264784;22;20404;-96
2021/07/31 07:23:20;;;;;;;;;;;;;;;;;;;;;
2021/07/31 07:26:39;;;;;;;0.30;0.30;;;15.50;99.90;;;;;;6235003;22;20486;-96
2021/07/31 07:41:14;;;;;;;1.05;0.95;;;15.90;99.90;;;;;;6242478;22;20397;-95
2021/07/31 07:49:13;;;;;;;0.50;0.50;;;16.50;99.90;;;;;;6262934;22;20388;-94
2021/07/31 07:51:46;;;;;;;0.28;0.28;;;16.90;99.90;;;;;;6337415;22;20848;-96
2021/07/31 07:54:40;;;;;;;0.38;0.38;;;17.00;99.90;;;;;;6328737;22;20383;-96
2021/07/31 07:57:37;;;;;;;2.75;0.90;;;17.00;99.90;;;;;;6346093;22;20434;-96
2021/07/31 08:00:26;;;;;;;0.33;0.33;;;16.90;99.90;;;;;;6309372;22;20369;-96
2021/07/31 08:06:03;;;;;;;0.70;0.70;;;17.00;99.90;;;;;;6281540;22;20392;-94
2021/07/31 08:09:09;;;;;;;0.40;0.40;;;17.30;99.90;;;;;;6241073;22;20388;-96
2021/07/31 08:27:08;;;;;;;0.35;0.35;;;17.90;99.90;;;;;;6262391;22;20388;-96
2021/07/31 08:29:35;;;;;;;0.30;0.30;;;18.30;99.90;;;;;;6254421;22;20396;-96
2021/07/31 08:32:03;;;;;;;0.35;0.35;;;18.50;99.90;;;;;;6260246;22;20380;-96
2021/07/31 08:34:56;;;;;;;;;;;;;;;;;;;;;
2021/07/31 09:00:40;;;;;;;0.30;0.30;;;18.40;99.90;;;;;;6273033;22;20436;-93
2021/07/31 09:03:15;;;;;;;0.20;0.20;;;18.30;99.90;;;;;;6257070;22;20439;-96
2021/07/31 09:06:03;;;;;;;0.70;0.40;;;18.50;99.90;;;;;;6257670;22;20845;-96
2021/07/31 09:11:22;;;;;;;0.60;0.60;;;19.20;99.90;;;;;;6263263;22;20394;-95
2021/07/31 09:30:04;;;;;;;0.70;0.40;;;19.60;99.90;;;;;;6297449;22;20487;-94
2021/07/31 09:44:22;;;;;;;0.87;0.60;;;20.10;99.90;;;;;;6220014;23;20421;-94
2021/07/31 09:46:54;;;;;;;0.75;0.30;;;20.10;99.90;;;;;;6192055;23;20483;-95
2021/07/31 09:49:31;;;;;;;0.22;0.22;;;20.40;99.90;;;;;;6191588;23;20446;-94
2021/07/31 09:52:18;;;;;;;0.80;0.75;;;20.40;99.90;;;;;;6195744;22;20387;-94
2021/07/31 09:54:50;;;;;;;1.40;0.50;;;20.30;99.90;;;;;;6194796;23;20379;-95
2021/07/31 09:57:42;;;;;;;1.15;0.65;;;20.50;99.90;;;;;;6203587;22;20401;-95
2021/07/31 10:00:10;;;;;;;0.47;0.47;;;20.50;99.90;;;;;;6255730;22;20428;-94
2021/07/31 10:02:39;;;;;;;0.65;0.35;;;20.80;99.90;;;;;;6276921;22;20381;-94
2021/07/31 10:05:07;;;;;;;0.40;0.40;;;21.10;99.90;;;;;;6251199;22;20384;-94
2021/07/31 10:07:39;;;;;;;0.10;0.10;;;21.20;99.90;;;;;;6277705;22;20384;-94
2021/07/31 10:10:27;;;;;;;0.70;0.60;;;21.00;99.90;;;;;;6252816;22;20377;-96
2021/07/31 10:12:54;;;;;;;0.30;0.20;;;21.10;99.90;;;;;;6251932;22;20430;-95
2021/07/31 10:15:22;;;;;;;6.53;0.52;;;21.20;99.90;;;;;;6276756;22;20380;-94
2021/07/31 10:17:49;;;;;;;0.30;0.30;;;21.40;99.90;;;;;;6276051;22;20380;-95
2021/07/31 10:20:28;;;;;;;0.70;0.70;;;21.40;99.90;;;;;;6253296;22;20424;-95
2021/07/31 10:22:57;;;;;;;0.40;0.40;;;21.50;99.90;;;;;;6281023;22;20380;-94
2021/07/31 10:26:17;;;;;;;0.50;0.50;;;21.50;99.90;;;;;;6265835;22;20937;-96
2021/07/31 10:29:39;;;;;;;0.13;0.13;;;21.20;99.90;;;;;;6258458;22;20396;-96
2021/07/31 10:38:33;;;;;;;0.30;0.30;;;21.30;99.90;;;;;;6236784;23;20447;-96
2021/07/31 10:45:15;;;;;;;2.50;0.50;;;21.10;99.90;;;;;;6320091;22;21519;-96
2021/07/31 10:47:59;;;;;;;0.20;0.20;;;20.90;99.90;;;;;;6234795;23;20389;-96
2021/07/31 10:50:44;;;;;;;7.10;0.65;;;20.90;99.90;;;;;;6241929;23;20370;-96
2021/07/31 10:56:56;;;;;;;0.40;0.40;;;21.40;99.90;;;;;;6269318;22;20372;-96
2021/07/31 10:59:37;;;;;;;0.30;0.30;;;21.40;99.90;;;;;;6299783;22;20396;31
2021/07/31 11:02:58;;;;;;;0.60;0.40;;;21.70;99.90;;;;;;6184257;22;20378;-96
2021/07/31 11:07:33;;;;;;;0.20;0.20;;;21.70;99.90;;;;;;6271658;22;20383;-96
2021/07/31 11:10:31;;;;;;;0.45;0.45;;;21.70;99.90;;;;;;6262937;22;20395;-96
2021/07/31 11:13:41;;;;;;;0.20;0.20;;;21.20;99.90;;;;;;6240072;22;20400;-96
2021/07/31 11:23:07;;;;;;;0.40;0.40;;;21.50;99.90;;;;;;6253809;22;20407;-96
2021/07/31 11:25:57;;;;;;;0.30;0.30;;;21.80;99.90;;;;;;6282029;22;20852;-96
2021/07/31 11:32:14;;;;;;;;;;;;;;;;;;;;;
2021/07/31 11:48:10;;;;;;;0.50;0.50;;;22.50;99.90;;;;;;6234686;22;20748;-95
2021/07/31 12:02:21;;;;;;;7.97;5.13;;;22.80;99.90;;;;;;6293579;22;20411;-93
2021/07/31 12:04:57;;;;;;;7.35;4.80;;;23.10;99.90;;;;;;6282221;22;20399;-94
2021/07/31 12:19:46;;;;;;;8.55;5.65;;;21.40;99.90;;;;;;6281459;22;20393;-92
2021/07/31 12:22:28;;;;;;;6.10;5.13;;;21.60;99.90;;;;;;6280195;22;20372;-93
2021/07/31 12:25:20;;;;;;;8.25;5.50;;;21.60;99.90;;;;;;6284498;22;20382;-94
2021/07/31 12:27:51;;;;;;;9.38;5.68;;;21.60;99.90;;;;;;6263970;22;20387;-92
2021/07/31 12:30:39;;;;;;;8.20;5.50;;;21.50;99.90;;;;;;6271059;22;20392;-93
2021/07/31 12:33:06;;;;;;;7.63;5.35;;;21.50;99.90;;;;;;6251531;23;20374;-92
2021/07/31 12:35:38;;;;;;;8.67;5.20;;;21.60;99.90;;;;;;6254079;22;20389;-93
2021/07/31 12:38:08;;;;;;;9.77;5.55;;;21.60;99.90;;;;;;6251772;22;20381;-94
2021/07/31 12:40:37;;;;;;;10.90;5.20;;;21.40;99.90;;;;;;6254003;22;20385;-93
2021/07/31 12:43:16;;;;;;;8.82;5.60;;;21.40;99.90;;;;;;6251007;22;20386;-95
2021/07/31 12:45:45;;;;;;;8.90;5.72;;;21.30;99.90;;;;;;6246016;23;20711;-93
2021/07/31 12:48:13;;;;;;;10.20;5.70;;;21.30;99.90;;;;;;6246200;23;20393;-94
2021/07/31 12:50:42;;;;;;;7.22;5.18;;;21.40;99.90;;;;;;6271259;22;20432;-94
2021/07/31 12:53:12;;;;;;;6.57;5.00;;;21.60;99.90;;;;;;6249771;23;20390;-93
2021/07/31 12:55:41;;;;;;;6.72;4.90;;;22.20;99.90;;;;;;6246403;23;20390;-95
2021/07/31 12:58:08;;;;;;;8.50;4.70;;;23.00;99.90;;;;;;6248060;23;20366;-94
2021/07/31 13:00:36;;;;;;;10.23;4.65;;;23.90;99.90;;;;;;6249080;23;20398;-94
2021/07/31 13:03:08;;;;;;;7.30;4.40;;;24.20;99.90;;;;;;6252341;23;20525;-93
2021/07/31 13:05:41;;;;;;;7.40;4.47;;;23.90;99.90;;;;;;6249917;23;20389;-94
2021/07/31 13:08:14;;;;;;;5.68;4.50;;;23.50;99.90;;;;;;6252004;22;20385;-94
2021/07/31 13:10:46;;;;;;;7.67;4.60;;;23.10;99.90;;;;;;6251721;22;20417;-94
2021/07/31 13:13:13;;;;;;;8.43;4.50;;;22.90;99.90;;;;;;6252596;23;20778;-96
2021/07/31 13:15:43;;;;;;;6.77;4.70;;;22.60;99.90;;;;;;6252989;23;20823;-94
2021/07/31 13:18:12;;;;;;;8.13;4.88;;;22.40;99.90;;;;;;6248888;23;20770;-95
2021/07/31 13:34:14;;;;;;;7.93;4.50;;;22.60;99.90;;;;;;6287808;22;20388;-96
2021/07/31 13:42:48;;;;;;;7.30;4.40;;;23.70;99.90;;;;;;6286115;22;20391;-91
2021/07/31 13:45:15;;;;;;;7.45;4.10;;;23.40;99.90;;;;;;6278273;22;20384;-92
2021/07/31 13:47:42;;;;;;;6.15;4.53;;;23.60;99.90;;;;;;6276544;22;20387;-93
2021/07/31 13:50:13;;;;;;;6.47;4.05;;;24.10;99.90;;;;;;6276649;22;20386;-91
2021/07/31 13:52:41;;;;;;;7.32;4.50;;;24.30;99.90;;;;;;6276139;22;20837;-91
2021/07/31 13:55:08;;;;;;;7.30;4.07;;;24.20;99.90;;;;;;6275620;22;20447;-91
2021/07/31 13:57:38;;;;;;;8.47;4.27;;;24.40;99.90;;;;;;6275974;22;20388;-92
2021/07/31 14:00:06;;;;;;;5.82;4.20;;;25.20;99.90;;;;;;6275966;22;20946;-92
2021/07/31 14:02:33;;;;;;;4.73;3.77;;;25.50;99.90;;;;;;6275999;22;20364;-91
2021/07/31 14:05:01;;;;;;;4.80;3.65;;;25.70;99.90;;;;;;6276398;22;20468;-92
2021/07/31 14:07:28;;;;;;;6.53;3.70;;;25.70;99.90;;;;;;6275831;22;20384;-93
2021/07/31 14:09:55;;;;;;;7.47;3.80;;;25.40;99.90;;;;;;6275939;22;20387;-92
2021/07/31 14:12:23;;;;;;;6.40;3.80;;;25.10;99.90;;;;;;6275976;22;20713;-93
2021/07/31 14:14:50;;;;;;;6.75;3.90;;;24.70;99.90;;;;;;6276332;22;20498;-92
2021/07/31 14:17:17;;;;;;;8.70;4.20;;;24.30;99.90;;;;;;6276338;22;20456;-92
2021/07/31 14:19:46;;;;;;;5.40;3.90;;;24.10;99.90;;;;;;6276459;22;20387;-93
2021/07/31 14:22:13;;;;;;;6.78;3.97;;;24.30;99.90;;;;;;6275900;22;20447;-93
2021/07/31 14:28:01;;;;;;;9.80;4.18;;;24.70;99.90;;;;;;6243167;22;20384;-96
2021/07/31 14:30:37;;;;;;;7.20;4.33;;;24.20;99.90;;;;;;6283680;22;20362;-96
2021/07/31 14:33:56;;;;;;;8.52;4.45;;;23.60;99.90;;;;;;6263131;22;20406;-95
2021/07/31 14:36:38;;;;;;;5.35;4.20;;;23.00;99.90;;;;;;6251589;23;20449;-96
2021/07/31 14:39:05;;;;;;;6.55;4.20;;;22.50;99.90;;;;;;6253319;23;20855;-96
2021/07/31 14:42:20;;;;;;;7.90;4.40;;;22.20;99.90;;;;;;6257236;22;20390;31
2021/07/31 14:45:08;;;;;;;7.28;4.45;;;21.70;99.90;;;;;;6146455;23;20434;-93
2021/07/31 14:47:37;;;;;;;10.10;4.57;;;21.50;99.90;;;;;;6157034;23;20391;-95
2021/07/31 14:50:04;;;;;;;9.23;4.43;;;21.40;99.90;;;;;;6155026;23;20490;-96
2021/07/31 14:53:27;;;;;;;5.50;4.00;;;21.40;99.90;;;;;;6180013;22;20414;-96
2021/07/31 15:02:03;;;;;;;7.82;4.22;;;22.00;99.90;;;;;;6218732;22;20393;-95
2021/07/31 15:04:33;;;;;;;6.70;4.17;;;22.50;99.90;;;;;;6291921;22;20454;-96
2021/07/31 15:07:16;;;;;;;4.72;3.90;;;22.70;99.90;;;;;;6268831;22;20368;-96
2021/07/31 15:10:22;;;;;;;4.88;3.95;;;22.80;99.90;;;;;;6288655;22;20391;-96
2021/07/31 15:12:49;;;;;;;5.53;4.10;;;22.70;99.90;;;;;;6274613;22;20411;-95
2021/07/31 15:20:51;;;;;;;5.80;4.25;;;22.50;99.90;;;;;;6265389;22;20378;-96
2021/07/31 18:33:50;;;;;;;0.20;0.20;;;16.20;99.90;;;;;;6261969;22;20425;-96
2021/07/31 18:36:19;;;;;;;0.20;0.20;;;15.90;99.90;;;;;;6258856;22;20370;-95
2021/07/31 18:38:54;;;;;;;0.22;0.22;;;15.80;99.90;;;;;;6263962;22;20447;-96
2021/07/31 18:41:49;;;;;;;0.47;0.47;;;15.70;99.90;;;;;;6243804;22;20394;-96
2021/07/31 18:44:51;;;;;;;0.20;0.20;;;15.50;99.90;;;;;;6271855;22;20396;-96
2021/07/31 18:47:56;;;;;;;0.85;0.52;;;15.30;99.90;;;;;;6190478;23;20416;-96
2021/07/31 18:50:28;;;;;;;0.20;0.20;;;15.20;99.90;;;;;;6172708;23;20389;-96
2021/07/31 18:52:56;;;;;;;0.22;0.22;;;15.10;99.90;;;;;;6177078;23;20389;-95
2021/07/31 18:55:24;;;;;;;0.35;0.35;;;15.00;99.90;;;;;;6179751;23;20393;-95
2021/07/31 18:57:56;;;;;;;0.40;0.40;;;14.80;99.90;;;;;;6177425;23;20459;-96
2021/07/31 19:00:27;;;;;;;0.30;0.30;;;14.70;99.90;;;;;;6176326;23;20393;-96
2021/07/31 19:02:59;;;;;;;0.90;0.70;;;14.70;99.90;;;;;;6178836;23;20421;-95
2021/07/31 19:05:27;;;;;;;3.20;0.93;;;14.70;99.90;;;;;;6177939;23;20389;-95
2021/07/31 19:08:25;;;;;;;0.13;0.13;;;14.70;99.90;;;;;;6178122;23;20862;-96
2021/07/31 19:10:53;;;;;;;0.20;0.20;;;14.70;99.90;;;;;;6179338;23;20393;-96
2021/07/31 19:13:23;;;;;;;1.25;0.30;;;14.70;99.90;;;;;;6175413;23;20456;-96
2021/07/31 19:15:53;;;;;;;0.40;0.40;;;14.80;99.90;;;;;;6179513;23;20393;-96
2021/07/31 19:18:28;;;;;;;0.50;0.45;;;14.80;99.90;;;;;;6181183;23;20393;-96
2021/07/31 19:21:30;;;;;;;0.38;0.38;;;14.80;99.90;;;;;;6208269;23;20393;-96
2021/07/31 20:57:36;;;;;;;0.70;0.40;;;14.60;99.90;;;;;;6263219;22;20384;-96
2021/07/31 21:05:31;;;;;;;0.25;0.25;;;14.70;99.90;;;;;;6268127;22;20388;-92
2021/07/31 21:07:59;;;;;;;0.10;0.10;;;14.80;99.90;;;;;;6252094;22;20395;-94
2021/07/31 21:10:26;;;;;;;0.10;0.10;;;14.70;99.90;;;;;;6277586;22;20391;-91
2021/07/31 21:12:53;;;;;;;0.10;0.10;;;14.70;99.90;;;;;;6267863;22;20356;-93
2021/07/31 21:15:20;;;;;;;2.50;0.80;;;14.70;99.90;;;;;;6265303;22;20511;-92
2021/07/31 21:17:47;;;;;;;0.35;0.35;;;14.60;99.90;;;;;;6250557;22;20390;-92
2021/07/31 21:20:15;;;;;;;0.17;0.17;;;14.60;99.90;;;;;;6250799;22;20383;-92
2021/07/31 21:22:42;;;;;;;0.30;0.30;;;14.50;99.90;;;;;;6250822;22;20907;-93
2021/07/31 21:25:10;;;;;;;1.10;0.32;;;14.50;99.90;;;;;;6250455;22;20384;-92
2021/07/31 21:27:37;;;;;;;0.20;0.20;;;14.60;99.90;;;;;;6251244;22;20384;-92
2021/07/31 21:30:05;;;;;;;0.40;0.20;;;14.60;99.90;;;;;;6251067;22;20368;-93
2021/07/31 21:32:32;;;;;;;0.20;0.20;;;14.60;99.90;;;;;;6275303;22;20387;-93
2021/07/31 21:35:01;;;;;;;0.20;0.20;;;14.60;99.90;;;;;;6250493;22;20399;-92
2021/07/31 21:37:28;;;;;;;0.20;0.20;;;14.60;99.90;;;;;;6250742;22;20380;-94
2021/07/31 21:39:55;;;;;;;0.40;0.28;;;14.60;99.90;;;;;;6251405;22;20863;-92
2021/07/31 21:42:24;;;;;;;0.95;0.35;;;14.60;99.90;;;;;;6250991;22;20403;-94
2021/07/31 21:44:52;;;;;;;0.13;0.13;;;14.50;99.90;;;;;;6250403;22;20377;-93
2021/07/31 21:47:19;;;;;;;0.50;0.50;;;14.40;99.90;;;;;;6250537;22;20372;-93
2021/07/31 21:49:46;;;;;;;0.15;0.15;;;14.40;99.90;;;;;;6251300;22;20845;-92
2021/07/31 21:52:13;;;;;;;1.30;0.88;;;14.30;99.90;;;;;;6250360;22;20384;-93
2021/07/31 21:54:40;;;;;;;1.20;0.60;;;14.30;99.90;;;;;;6250258;22;20852;-93
2021/07/31 21:57:07;;;;;;;0.23;0.23;;;14.20;99.90;;;;;;6250425;22;20439;-93
2021/07/31 21:59:34;;;;;;;0.20;0.20;;;14.20;99.90;;;;;;6250658;22;20388;-95
2021/07/31 22:02:01;;;;;;;0.10;0.10;;;14.30;99.90;;;;;;6249864;22;20411;-93
2021/07/31 22:04:28;;;;;;;0.25;0.25;;;14.30;99.90;;;;;;6250222;22;20388;-94
2021/07/31 22:06:55;;;;;;;0.60;0.60;;;14.30;99.90;;;;;;6250108;22;20390;-94
2021/07/31 22:09:22;;;;;;;0.20;0.20;;;14.30;99.90;;;;;;6250319;22;20384;-92
2021/07/31 22:11:50;;;;;;;0.10;0.10;;;14.20;99.90;;;;;;6250681;22;20372;-93
2021/07/31 22:14:17;;;;;;;0.30;0.30;;;14.30;99.90;;;;;;6250761;22;20364;-92
2021/07/31 22:16:44;;;;;;;0.10;0.10;;;14.20;99.90;;;;;;6249862;22;20388;-92
2021/07/31 22:19:12;;;;;;;0.28;0.28;;;14.20;99.90;;;;;;6250279;22;20865;-91
2021/07/31 22:21:39;;;;;;;0.20;0.20;;;14.20;99.90;;;;;;6250869;22;20717;-93
2021/07/31 22:24:06;;;;;;;1.15;0.80;;;14.10;99.90;;;;;;6250129;22;20448;-94
2021/07/31 22:26:34;;;;;;;0.20;0.20;;;14.10;99.90;;;;;;6251323;22;20391;-93
2021/07/31 22:29:01;;;;;;;0.40;0.40;;;14.10;99.90;;;;;;6251130;22;20384;-94
2021/07/31 22:31:29;;;;;;;0.20;0.20;;;14.00;99.90;;;;;;6250185;22;20376;-94
2021/07/31 22:33:56;;;;;;;0.20;0.20;;;14.00;99.90;;;;;;6250298;22;20387;-93
2021/07/31 22:36:23;;;;;;;0.65;0.57;;;13.90;99.90;;;;;;6249992;22;20384;-93
2021/07/31 22:38:52;;;;;;;0.32;0.32;;;13.90;99.90;;;;;;6250280;22;20720;-94
2021/07/31 22:41:19;;;;;;;0.50;0.50;;;13.80;99.90;;;;;;6250116;22;20384;-91
2021/07/31 22:43:46;;;;;;;0.20;0.20;;;13.90;99.90;;;;;;6250007;22;20384;-92
2021/07/31 22:46:13;;;;;;;0.30;0.30;;;13.90;99.90;;;;;;6249486;22;20387;-92
2021/07/31 22:48:41;;;;;;;0.10;0.10;;;13.80;99.90;;;;;;6250362;22;20384;-91
2021/07/31 22:51:09;;;;;;;0.10;0.10;;;13.90;99.90;;;;;;6275362;22;20388;-92
2021/07/31 22:53:36;;;;;;;0.20;0.20;;;13.90;99.90;;;;;;6264929;22;20388;-93
2021/07/31 22:56:03;;;;;;;2.00;0.85;;;13.90;99.90;;;;;;6265485;22;20392;-91
2021/07/31 22:58:30;;;;;;;0.40;0.40;;;14.00;99.90;;;;;;6250926;22;20368;-93
2021/07/31 23:00:57;;;;;;;0.23;0.23;;;14.00;99.90;;;;;;6249682;22;20415;-91
2021/07/31 23:03:24;;;;;;;0.15;0.15;;;14.00;99.90;;;;;;6250070;22;20475;-92
2021/07/31 23:06:00;;;;;;;0.30;0.30;;;14.00;99.90;;;;;;6250028;22;20390;-94
2021/07/31 23:08:27;;;;;;;0.20;0.20;;;14.00;99.90;;;;;;6275239;22;20384;-91
2021/07/31 23:10:54;;;;;;;0.20;0.20;;;14.10;99.90;;;;;;6250153;22;20380;-94
2021/07/31 23:13:22;;;;;;;0.43;0.43;;;14.20;99.90;;;;;;6249630;22;20384;-91
2021/07/31 23:15:50;;;;;;;0.15;0.15;;;14.20;99.90;;;;;;6249920;22;20391;-94
2021/07/31 23:18:17;;;;;;;0.30;0.30;;;14.20;99.90;;;;;;6275585;22;20398;-92
2021/07/31 23:20:44;;;;;;;0.30;0.30;;;14.20;99.90;;;;;;6250031;22;20384;-92
2021/07/31 23:23:11;;;;;;;0.28;0.28;;;14.30;99.90;;;;;;6250963;22;20399;-94
2021/07/31 23:25:40;;;;;;;0.10;0.10;;;14.40;99.90;;;;;;6251921;22;20380;-94
2021/07/31 23:28:07;;;;;;;0.28;0.28;;;14.30;99.90;;;;;;6251871;22;20435;-92
2021/07/31 23:30:34;;;;;;;0.10;0.10;;;14.20;99.90;;;;;;6251324;22;20380;-95
2021/07/31 23:33:01;;;;;;;0.30;0.30;;;14.20;99.90;;;;;;6251612;22;20390;-93
2021/07/31 23:35:28;;;;;;;0.20;0.20;;;14.10;99.90;;;;;;6277491;22;20391;-94
2021/07/31 23:38:36;;;;;;;0.50;0.50;;;14.10;99.90;;;;;;6255861;22;20364;-93
2021/07/31 23:42:04;;;;;;;0.30;0.30;;;14.10;99.90;;;;;;6194088;23;20680;-91
2021/07/31 23:46:00;;;;;;;0.80;0.80;;;14.10;99.90;;;;;;6009518;23;20406;-92
2021/07/31 23:49:37;;;;;;;0.20;0.20;;;14.20;99.90;;;;;;5953254;23;20445;-91
2021/07/31 23:52:32;;;;;;;0.30;0.30;;;14.10;99.90;;;;;;5992288;23;20458;-91
2021/07/31 23:56:12;;;;;;;0.30;0.30;;;14.10;99.90;;;;;;5991680;23;20441;-91
2021/07/31 23:59:02;;;;;;;0.93;0.68;;;14.20;99.90;;;;;;5968745;23;20412;-92
